sensor_id;sensor_type;location;lat;lon;timestamp;pressure;altitude;pressure_sealevel;temperature;humidity
16100;BME280;8154;50.830;12.082;2023-04-28T00:00:49;99567.81;;;23.05;35.69
16100;BME280;8154;50.830;12.082;2023-04-28T00:03:16;99569.84;;;23.03;35.89
16100;BME280;8154;50.830;12.082;2023-04-28T00:05:43;99566.78;;;23.06;35.78
16100;BME280;8154;50.830;12.082;2023-04-28T00:08:09;99563.94;;;23.07;35.58
16100;BME280;8154;50.830;12.082;2023-04-28T00:10:35;99569.91;;;23.09;35.51
16100;BME280;8154;50.830;12.082;2023-04-28T00:13:01;99559.16;;;23.03;35.94
16100;BME280;8154;50.830;12.082;2023-04-28T00:15:29;99552.44;;;23.07;35.77
16100;BME280;8154;50.830;12.082;2023-04-28T00:17:55;99545.91;;;23.09;35.70
16100;BME280;8154;50.830;12.082;2023-04-28T00:20:21;99545.72;;;23.11;35.64
16100;BME280;8154;50.830;12.082;2023-04-28T00:22:47;99544.44;;;23.07;35.58
16100;BME280;8154;50.830;12.082;2023-04-28T00:25:15;99544.44;;;23.07;35.62
16100;BME280;8154;50.830;12.082;2023-04-28T00:27:42;99537.28;;;23.07;35.58
16100;BME280;8154;50.830;12.082;2023-04-28T00:30:09;99539.28;;;23.05;35.73
16100;BME280;8154;50.830;12.082;2023-04-28T00:32:36;99541.78;;;23.07;35.65
16100;BME280;8154;50.830;12.082;2023-04-28T00:35:02;99527.44;;;23.08;35.64
16100;BME280;8154;50.830;12.082;2023-04-28T00:37:28;99528.44;;;23.07;35.74
16100;BME280;8154;50.830;12.082;2023-04-28T00:39:55;99524.13;;;23.06;35.74
16100;BME280;8154;50.830;12.082;2023-04-28T00:42:21;99522.50;;;23.05;35.79
16100;BME280;8154;50.830;12.082;2023-04-28T00:44:47;99516.53;;;23.03;35.72
16100;BME280;8154;50.830;12.082;2023-04-28T00:47:32;99518.81;;;23.06;35.68
16100;BME280;8154;50.830;12.082;2023-04-28T00:50:09;99510.81;;;23.06;35.67
16100;BME280;8154;50.830;12.082;2023-04-28T00:52:37;99509.59;;;23.08;35.52
16100;BME280;8154;50.830;12.082;2023-04-28T00:55:04;99507.09;;;23.07;35.83
16100;BME280;8154;50.830;12.082;2023-04-28T00:57:31;99503.84;;;23.05;35.87
16100;BME280;8154;50.830;12.082;2023-04-28T00:59:57;99498.91;;;23.08;35.56
16100;BME280;8154;50.830;12.082;2023-04-28T01:02:24;99512.81;;;23.04;35.83
16100;BME280;8154;50.830;12.082;2023-04-28T01:04:51;99505.94;;;23.09;35.47
16100;BME280;8154;50.830;12.082;2023-04-28T01:07:19;99508.41;;;23.11;35.57
16100;BME280;8154;50.830;12.082;2023-04-28T01:09:48;99504.06;;;23.10;35.75
16100;BME280;8154;50.830;12.082;2023-04-28T01:12:14;99500.22;;;23.12;35.66
16100;BME280;8154;50.830;12.082;2023-04-28T01:14:40;99494.28;;;23.17;35.63
16100;BME280;8154;50.830;12.082;2023-04-28T01:17:07;99487.94;;;23.18;35.48
16100;BME280;8154;50.830;12.082;2023-04-28T01:19:33;99488.72;;;23.12;35.43
16100;BME280;8154;50.830;12.082;2023-04-28T01:21:59;99483.75;;;23.09;35.49
16100;BME280;8154;50.830;12.082;2023-04-28T01:24:25;99475.97;;;23.07;35.57
16100;BME280;8154;50.830;12.082;2023-04-28T01:26:52;99478.38;;;23.02;35.90
16100;BME280;8154;50.830;12.082;2023-04-28T01:29:18;99471.84;;;23.05;35.74
16100;BME280;8154;50.830;12.082;2023-04-28T01:31:44;99482.50;;;23.05;35.50
16100;BME280;8154;50.830;12.082;2023-04-28T01:34:10;99475.50;;;23.04;35.92
16100;BME280;8154;50.830;12.082;2023-04-28T01:36:37;99479.00;;;23.04;35.86
16100;BME280;8154;50.830;12.082;2023-04-28T01:39:03;99478.03;;;23.12;35.73
16100;BME280;8154;50.830;12.082;2023-04-28T01:41:30;99481.75;;;23.11;35.58
16100;BME280;8154;50.830;12.082;2023-04-28T01:43:56;99474.13;;;23.08;35.72
16100;BME280;8154;50.830;12.082;2023-04-28T01:46:23;99469.06;;;23.13;35.34
16100;BME280;8154;50.830;12.082;2023-04-28T01:48:49;99464.06;;;23.10;35.45
16100;BME280;8154;50.830;12.082;2023-04-28T01:51:15;99462.81;;;23.06;35.56
16100;BME280;8154;50.830;12.082;2023-04-28T01:53:44;99460.34;;;23.04;35.68
16100;BME280;8154;50.830;12.082;2023-04-28T02:57:49;99420.16;;;23.06;35.60
16100;BME280;8154;50.830;12.082;2023-04-28T03:00:16;99421.41;;;23.03;35.67
16100;BME280;8154;50.830;12.082;2023-04-28T03:02:42;99418.53;;;23.05;35.68
16100;BME280;8154;50.830;12.082;2023-04-28T03:05:08;99406.41;;;23.02;35.78
16100;BME280;8154;50.830;12.082;2023-04-28T03:07:34;99404.56;;;23.03;35.70
16100;BME280;8154;50.830;12.082;2023-04-28T03:10:00;99399.81;;;22.98;35.80
16100;BME280;8154;50.830;12.082;2023-04-28T03:12:26;99401.84;;;22.96;35.79
16100;BME280;8154;50.830;12.082;2023-04-28T03:14:52;99395.91;;;22.94;35.90
16100;BME280;8154;50.830;12.082;2023-04-28T03:17:19;99396.31;;;22.98;35.88
16100;BME280;8154;50.830;12.082;2023-04-28T03:20:14;99389.16;;;22.98;35.77
16100;BME280;8154;50.830;12.082;2023-04-28T03:22:40;99386.69;;;22.97;35.91
16100;BME280;8154;50.830;12.082;2023-04-28T03:25:07;99387.72;;;22.96;35.75
16100;BME280;8154;50.830;12.082;2023-04-28T03:27:33;99380.97;;;23.00;35.70
16100;BME280;8154;50.830;12.082;2023-04-28T03:30:00;99378.31;;;23.00;35.94
16100;BME280;8154;50.830;12.082;2023-04-28T03:32:27;99374.38;;;22.96;35.65
16100;BME280;8154;50.830;12.082;2023-04-28T03:34:53;99379.13;;;23.00;35.72
16100;BME280;8154;50.830;12.082;2023-04-28T03:37:19;99370.94;;;23.02;35.88
16100;BME280;8154;50.830;12.082;2023-04-28T03:39:46;99369.28;;;23.01;35.84
16100;BME280;8154;50.830;12.082;2023-04-28T03:42:12;99357.56;;;22.95;35.83
16100;BME280;8154;50.830;12.082;2023-04-28T03:44:38;99359.59;;;22.93;35.73
16100;BME280;8154;50.830;12.082;2023-04-28T03:47:05;99355.28;;;22.92;35.95
16100;BME280;8154;50.830;12.082;2023-04-28T03:49:31;99351.59;;;22.93;35.81
16100;BME280;8154;50.830;12.082;2023-04-28T03:51:57;99345.28;;;22.94;36.03
16100;BME280;8154;50.830;12.082;2023-04-28T03:54:23;99349.56;;;22.95;35.99
16100;BME280;8154;50.830;12.082;2023-04-28T04:58:35;99303.63;;;22.93;36.13
16100;BME280;8154;50.830;12.082;2023-04-28T05:01:01;99308.31;;;22.91;36.09
16100;BME280;8154;50.830;12.082;2023-04-28T05:03:28;99302.38;;;22.89;36.12
16100;BME280;8154;50.830;12.082;2023-04-28T05:06:13;99307.50;;;22.91;35.92
16100;BME280;8154;50.830;12.082;2023-04-28T05:08:39;99294.19;;;22.91;35.82
16100;BME280;8154;50.830;12.082;2023-04-28T05:11:07;99298.50;;;22.92;35.80
16100;BME280;8154;50.830;12.082;2023-04-28T05:13:57;99293.00;;;23.00;35.94
16100;BME280;8154;50.830;12.082;2023-04-28T05:16:24;99282.09;;;22.95;36.04
16100;BME280;8154;50.830;12.082;2023-04-28T05:18:50;99284.78;;;22.95;35.77
16100;BME280;8154;50.830;12.082;2023-04-28T05:21:16;99286.00;;;22.92;35.91
16100;BME280;8154;50.830;12.082;2023-04-28T05:23:42;99283.91;;;22.88;35.97
16100;BME280;8154;50.830;12.082;2023-04-28T05:26:08;99279.41;;;22.88;35.99
16100;BME280;8154;50.830;12.082;2023-04-28T05:28:34;99289.84;;;22.90;36.00
16100;BME280;8154;50.830;12.082;2023-04-28T05:31:01;99283.91;;;22.88;36.12
16100;BME280;8154;50.830;12.082;2023-04-28T05:33:27;99287.78;;;22.85;36.26
16100;BME280;8154;50.830;12.082;2023-04-28T05:35:53;99277.75;;;22.87;36.23
16100;BME280;8154;50.830;12.082;2023-04-28T05:38:19;99276.13;;;22.93;36.01
16100;BME280;8154;50.830;12.082;2023-04-28T05:40:46;99273.66;;;22.91;36.11
16100;BME280;8154;50.830;12.082;2023-04-28T05:43:12;99270.59;;;22.88;36.25
16100;BME280;8154;50.830;12.082;2023-04-28T05:45:39;99262.44;;;22.96;35.95
16100;BME280;8154;50.830;12.082;2023-04-28T05:48:10;99259.38;;;22.99;35.88
16100;BME280;8154;50.830;12.082;2023-04-28T05:50:35;99256.91;;;22.97;35.87
16100;BME280;8154;50.830;12.082;2023-04-28T05:53:05;99255.25;;;22.96;35.93
16100;BME280;8154;50.830;12.082;2023-04-28T05:55:33;99259.78;;;22.96;35.87
16100;BME280;8154;50.830;12.082;2023-04-28T06:59:21;99249.53;;;22.99;36.05
16100;BME280;8154;50.830;12.082;2023-04-28T07:01:48;99243.75;;;22.89;35.98
16100;BME280;8154;50.830;12.082;2023-04-28T07:04:14;99237.16;;;22.85;36.04
16100;BME280;8154;50.830;12.082;2023-04-28T07:06:41;99237.19;;;22.92;36.07
16100;BME280;8154;50.830;12.082;2023-04-28T07:09:07;99237.81;;;22.94;36.01
16100;BME280;8154;50.830;12.082;2023-04-28T07:11:34;99236.75;;;22.88;36.18
16100;BME280;8154;50.830;12.082;2023-04-28T07:14:00;99223.63;;;22.87;35.99
16100;BME280;8154;50.830;12.082;2023-04-28T07:16:27;99228.00;;;23.01;36.04
16100;BME280;8154;50.830;12.082;2023-04-28T07:18:54;99227.00;;;23.02;35.79
16100;BME280;8154;50.830;12.082;2023-04-28T07:21:25;99232.34;;;23.02;36.12
16100;BME280;8154;50.830;12.082;2023-04-28T07:23:53;99230.72;;;23.07;35.77
16100;BME280;8154;50.830;12.082;2023-04-28T07:26:22;99231.06;;;22.98;36.09
16100;BME280;8154;50.830;12.082;2023-04-28T07:28:52;99232.31;;;22.95;36.07
16100;BME280;8154;50.830;12.082;2023-04-28T07:31:18;99233.97;;;23.03;35.97
16100;BME280;8154;50.830;12.082;2023-04-28T07:33:46;99224.94;;;23.04;35.76
16100;BME280;8154;50.830;12.082;2023-04-28T07:36:12;99226.38;;;23.00;36.10
16100;BME280;8154;50.830;12.082;2023-04-28T07:38:38;99223.47;;;22.95;36.00
16100;BME280;8154;50.830;12.082;2023-04-28T07:41:04;99227.81;;;22.96;35.86
16100;BME280;8154;50.830;12.082;2023-04-28T07:43:30;99230.66;;;22.94;35.97
16100;BME280;8154;50.830;12.082;2023-04-28T07:45:56;99232.91;;;22.91;36.13
16100;BME280;8154;50.830;12.082;2023-04-28T07:48:22;99232.25;;;22.89;36.07
16100;BME280;8154;50.830;12.082;2023-04-28T07:50:50;99229.41;;;22.90;36.15
16100;BME280;8154;50.830;12.082;2023-04-28T07:53:16;99229.41;;;22.90;36.01
16100;BME280;8154;50.830;12.082;2023-04-28T07:55:42;99223.22;;;22.90;36.20
16100;BME280;8154;50.830;12.082;2023-04-28T07:58:09;99221.41;;;22.90;36.28
16100;BME280;8154;50.830;12.082;2023-04-28T08:00:36;99217.31;;;22.88;36.34
16100;BME280;8154;50.830;12.082;2023-04-28T08:03:02;99229.59;;;22.89;36.20
16100;BME280;8154;50.830;12.082;2023-04-28T08:05:28;99228.16;;;22.86;36.34
16100;BME280;8154;50.830;12.082;2023-04-28T08:07:54;99222.44;;;22.89;36.22
16100;BME280;8154;50.830;12.082;2023-04-28T08:10:20;99224.06;;;22.90;36.28
16100;BME280;8154;50.830;12.082;2023-04-28T08:12:47;99227.56;;;22.91;36.22
16100;BME280;8154;50.830;12.082;2023-04-28T08:15:13;99223.88;;;22.92;35.85
16100;BME280;8154;50.830;12.082;2023-04-28T08:17:40;99219.19;;;22.94;36.08
16100;BME280;8154;50.830;12.082;2023-04-28T08:20:07;99228.00;;;22.94;36.12
16100;BME280;8154;50.830;12.082;2023-04-28T08:22:34;99223.28;;;22.96;35.94
16100;BME280;8154;50.830;12.082;2023-04-28T08:25:00;99229.00;;;22.93;35.92
16100;BME280;8154;50.830;12.082;2023-04-28T08:27:26;99227.13;;;22.87;36.29
16100;BME280;8154;50.830;12.082;2023-04-28T08:29:53;99225.09;;;22.89;36.23
16100;BME280;8154;50.830;12.082;2023-04-28T08:32:20;99225.75;;;22.98;35.93
16100;BME280;8154;50.830;12.082;2023-04-28T08:34:46;99223.31;;;23.03;36.04
16100;BME280;8154;50.830;12.082;2023-04-28T08:37:12;99222.88;;;22.99;36.02
16100;BME280;8154;50.830;12.082;2023-04-28T08:39:39;99219.56;;;22.91;36.09
16100;BME280;8154;50.830;12.082;2023-04-28T08:42:04;99216.28;;;22.89;35.98
16100;BME280;8154;50.830;12.082;2023-04-28T08:44:35;99220.97;;;22.87;36.19
16100;BME280;8154;50.830;12.082;2023-04-28T08:47:07;99231.66;;;22.93;36.04
16100;BME280;8154;50.830;12.082;2023-04-28T08:49:37;99239.91;;;22.98;35.98
16100;BME280;8154;50.830;12.082;2023-04-28T08:52:11;99233.53;;;22.99;35.97
16100;BME280;8154;50.830;12.082;2023-04-28T08:54:39;99236.81;;;22.95;35.99
16100;BME280;8154;50.830;12.082;2023-04-28T08:57:09;99233.50;;;22.86;36.15
16100;BME280;8154;50.830;12.082;2023-04-28T08:59:40;99233.88;;;22.83;36.15
16100;BME280;8154;50.830;12.082;2023-04-28T09:02:07;99226.94;;;22.89;35.89
16100;BME280;8154;50.830;12.082;2023-04-28T09:04:34;99243.16;;;22.94;36.01
16100;BME280;8154;50.830;12.082;2023-04-28T09:07:01;99239.06;;;22.98;35.73
16100;BME280;8154;50.830;12.082;2023-04-28T09:09:30;99247.09;;;23.04;35.85
16100;BME280;8154;50.830;12.082;2023-04-28T09:12:01;99240.53;;;23.00;35.80
16100;BME280;8154;50.830;12.082;2023-04-28T09:14:32;99237.22;;;22.98;35.97
16100;BME280;8154;50.830;12.082;2023-04-28T09:16:59;99236.56;;;22.90;35.84
16100;BME280;8154;50.830;12.082;2023-04-28T09:19:36;99238.81;;;22.86;35.94
16100;BME280;8154;50.830;12.082;2023-04-28T09:22:05;99239.84;;;22.92;35.97
16100;BME280;8154;50.830;12.082;2023-04-28T09:24:39;99237.63;;;22.95;35.90
16100;BME280;8154;50.830;12.082;2023-04-28T09:27:10;99243.78;;;22.96;35.71
16100;BME280;8154;50.830;12.082;2023-04-28T09:29:51;99243.78;;;22.96;35.87
16100;BME280;8154;50.830;12.082;2023-04-28T09:32:21;99240.00;;;22.84;35.92
16100;BME280;8154;50.830;12.082;2023-04-28T09:34:53;99228.94;;;22.80;36.25
16100;BME280;8154;50.830;12.082;2023-04-28T09:37:24;99236.34;;;22.85;36.08
16100;BME280;8154;50.830;12.082;2023-04-28T09:40:19;99224.84;;;22.84;35.92
16100;BME280;8154;50.830;12.082;2023-04-28T09:42:45;99230.59;;;22.81;36.05
16100;BME280;8154;50.830;12.082;2023-04-28T09:45:13;99227.09;;;22.81;36.14
16100;BME280;8154;50.830;12.082;2023-04-28T09:47:45;99229.75;;;22.81;36.30
16100;BME280;8154;50.830;12.082;2023-04-28T09:50:13;99229.34;;;22.84;35.95
16100;BME280;8154;50.830;12.082;2023-04-28T09:52:40;99225.25;;;22.81;36.15
16100;BME280;8154;50.830;12.082;2023-04-28T09:55:07;99220.31;;;22.78;36.08
16100;BME280;8154;50.830;12.082;2023-04-28T09:57:35;99222.78;;;22.80;36.14
16100;BME280;8154;50.830;12.082;2023-04-28T10:00:03;99219.47;;;22.77;36.32
16100;BME280;8154;50.830;12.082;2023-04-28T10:02:36;99223.63;;;22.87;36.10
16100;BME280;8154;50.830;12.082;2023-04-28T10:05:04;99214.84;;;22.93;35.73
16100;BME280;8154;50.830;12.082;2023-04-28T10:07:36;99218.75;;;22.90;35.96
16100;BME280;8154;50.830;12.082;2023-04-28T10:10:03;99220.97;;;22.87;36.11
16100;BME280;8154;50.830;12.082;2023-04-28T10:12:31;99215.44;;;22.82;36.13
16100;BME280;8154;50.830;12.082;2023-04-28T10:14:58;99215.44;;;22.82;35.96
16100;BME280;8154;50.830;12.082;2023-04-28T10:17:26;99218.28;;;22.80;35.99
16100;BME280;8154;50.830;12.082;2023-04-28T10:19:54;99216.81;;;22.77;36.19
16100;BME280;8154;50.830;12.082;2023-04-28T10:25:31;99208.84;;;22.77;36.13
16100;BME280;8154;50.830;12.082;2023-04-28T10:27:59;99207.19;;;22.77;36.06
16100;BME280;8154;50.830;12.082;2023-04-28T10:30:39;99182.19;;;22.77;36.26
16100;BME280;8154;50.830;12.082;2023-04-28T10:38:34;99178.09;;;22.75;36.27
16100;BME280;8154;50.830;12.082;2023-04-28T10:41:02;99181.38;;;22.84;36.04
16100;BME280;8154;50.830;12.082;2023-04-28T10:58:47;99168.25;;;22.76;36.21
16100;BME280;8154;50.830;12.082;2023-04-28T11:06:23;99167.66;;;22.87;36.08
16100;BME280;8154;50.830;12.082;2023-04-28T11:09:02;99166.63;;;22.81;36.10
16100;BME280;8154;50.830;12.082;2023-04-28T11:11:29;99159.28;;;22.83;36.21
16100;BME280;8154;50.830;12.082;2023-04-28T11:16:56;99159.44;;;22.75;36.24
16100;BME280;8154;50.830;12.082;2023-04-28T11:19:33;99152.09;;;22.84;36.25
16100;BME280;8154;50.830;12.082;2023-04-28T11:22:02;99139.16;;;22.81;36.12
16100;BME280;8154;50.830;12.082;2023-04-28T11:24:29;99135.91;;;22.79;36.19
16100;BME280;8154;50.830;12.082;2023-04-28T11:26:57;99135.06;;;22.78;36.25
16100;BME280;8154;50.830;12.082;2023-04-28T11:31:58;99124.41;;;22.78;36.29
16100;BME280;8154;50.830;12.082;2023-04-28T11:34:24;99118.25;;;22.77;36.27
16100;BME280;8154;50.830;12.082;2023-04-28T11:36:51;99108.63;;;22.77;36.27
16100;BME280;8154;50.830;12.082;2023-04-28T11:39:24;99113.94;;;22.77;36.25
16100;BME280;8154;50.830;12.082;2023-04-28T11:42:13;99115.78;;;22.76;36.37
16100;BME280;8154;50.830;12.082;2023-04-28T11:44:39;99114.97;;;22.76;36.26
16100;BME280;8154;50.830;12.082;2023-04-28T11:47:06;99111.69;;;22.73;36.52
16100;BME280;8154;50.830;12.082;2023-04-28T11:49:43;99108.59;;;22.70;36.50
16100;BME280;8154;50.830;12.082;2023-04-28T11:52:10;99109.81;;;22.74;36.27
16100;BME280;8154;50.830;12.082;2023-04-28T11:54:37;99104.69;;;22.72;36.56
16100;BME280;8154;50.830;12.082;2023-04-28T11:57:04;99116.19;;;22.73;36.54
16100;BME280;8154;50.830;12.082;2023-04-28T11:59:33;99107.16;;;22.74;36.32
16100;BME280;8154;50.830;12.082;2023-04-28T12:02:06;99112.69;;;22.72;36.26
16100;BME280;8154;50.830;12.082;2023-04-28T12:04:40;99108.00;;;22.74;36.46
16100;BME280;8154;50.830;12.082;2023-04-28T12:12:27;99099.59;;;22.77;36.19
16100;BME280;8154;50.830;12.082;2023-04-28T12:14:57;99093.25;;;22.79;36.33
16100;BME280;8154;50.830;12.082;2023-04-28T12:17:25;99096.53;;;22.81;36.06
16100;BME280;8154;50.830;12.082;2023-04-28T12:19:53;99095.72;;;22.80;36.18
16100;BME280;8154;50.830;12.082;2023-04-28T12:22:20;99097.31;;;22.74;36.29
16100;BME280;8154;50.830;12.082;2023-04-28T12:25:08;99095.69;;;22.73;36.49
16100;BME280;8154;50.830;12.082;2023-04-28T12:27:36;99095.28;;;22.77;36.33
16100;BME280;8154;50.830;12.082;2023-04-28T12:32:45;99102.22;;;22.71;36.43
16100;BME280;8154;50.830;12.082;2023-04-28T12:35:12;99104.09;;;22.70;36.38
16100;BME280;8154;50.830;12.082;2023-04-28T12:37:41;99092.41;;;22.71;36.38
16100;BME280;8154;50.830;12.082;2023-04-28T12:40:07;99092.00;;;22.74;36.30
16100;BME280;8154;50.830;12.082;2023-04-28T12:42:34;99095.28;;;22.77;36.16
16100;BME280;8154;50.830;12.082;2023-04-28T12:45:00;99089.78;;;22.78;36.19
16100;BME280;8154;50.830;12.082;2023-04-28T12:47:26;99078.69;;;22.74;36.40
16100;BME280;8154;50.830;12.082;2023-04-28T12:49:53;99089.53;;;22.73;36.47
16100;BME280;8154;50.830;12.082;2023-04-28T12:52:19;99079.72;;;22.73;36.42
16100;BME280;8154;50.830;12.082;2023-04-28T12:54:46;99074.16;;;22.68;36.38
16100;BME280;8154;50.830;12.082;2023-04-28T12:57:16;99075.81;;;22.76;36.18
16100;BME280;8154;50.830;12.082;2023-04-28T20:01:35;98931.53;;;22.59;36.63
16100;BME280;8154;50.830;12.082;2023-04-28T20:04:06;98926.41;;;22.58;36.65
16100;BME280;8154;50.830;12.082;2023-04-28T20:06:33;98925.16;;;22.60;36.62
16100;BME280;8154;50.830;12.082;2023-04-28T20:09:00;98926.00;;;22.61;36.52
16100;BME280;8154;50.830;12.082;2023-04-28T20:11:28;98922.09;;;22.63;36.59
16100;BME280;8154;50.830;12.082;2023-04-28T20:13:55;98929.50;;;22.61;36.47
16100;BME280;8154;50.830;12.082;2023-04-28T20:16:22;98931.31;;;22.61;36.57
16100;BME280;8154;50.830;12.082;2023-04-28T20:18:49;98945.69;;;22.60;36.59
16100;BME280;8154;50.830;12.082;2023-04-28T20:21:16;98938.88;;;22.57;36.75
16100;BME280;8154;50.830;12.082;2023-04-28T20:23:43;98932.56;;;22.58;36.56
16100;BME280;8154;50.830;12.082;2023-04-28T20:26:16;98933.78;;;22.62;36.65
16100;BME280;8154;50.830;12.082;2023-04-28T20:28:46;98936.66;;;22.61;36.58
16100;BME280;8154;50.830;12.082;2023-04-28T20:31:13;98939.31;;;22.61;36.73
16100;BME280;8154;50.830;12.082;2023-04-28T20:33:39;98934.19;;;22.59;36.62
16100;BME280;8154;50.830;12.082;2023-04-28T20:36:06;98929.28;;;22.56;36.69
16100;BME280;8154;50.830;12.082;2023-04-28T20:38:32;98930.91;;;22.57;36.57
16100;BME280;8154;50.830;12.082;2023-04-28T20:40:59;98932.94;;;22.55;36.70
16100;BME280;8154;50.830;12.082;2023-04-28T20:43:26;98928.22;;;22.57;36.72
16100;BME280;8154;50.830;12.082;2023-04-28T20:46:09;98921.91;;;22.58;36.69
16100;BME280;8154;50.830;12.082;2023-04-28T21:19:38;98927.03;;;22.60;36.73
16100;BME280;8154;50.830;12.082;2023-04-28T21:22:05;98927.22;;;22.58;36.51
16100;BME280;8154;50.830;12.082;2023-04-28T21:24:31;98919.84;;;22.60;36.62
16100;BME280;8154;50.830;12.082;2023-04-28T21:26:57;98910.44;;;22.64;36.41
16100;BME280;8154;50.830;12.082;2023-04-28T21:29:24;98906.94;;;22.64;36.53
16100;BME280;8154;50.830;12.082;2023-04-28T21:31:52;98912.88;;;22.59;36.47
16100;BME280;8154;50.830;12.082;2023-04-28T21:34:19;98916.19;;;22.61;36.59
16100;BME280;8154;50.830;12.082;2023-04-28T21:36:46;98927.22;;;22.58;36.79
16100;BME280;8154;50.830;12.082;2023-04-28T21:39:16;98925.56;;;22.57;36.76
16100;BME280;8154;50.830;12.082;2023-04-28T21:41:43;98926.41;;;22.58;36.71
16100;BME280;8154;50.830;12.082;2023-04-28T21:44:09;98921.91;;;22.58;36.67
16100;BME280;8154;50.830;12.082;2023-04-28T21:46:36;98919.84;;;22.60;36.62
16100;BME280;8154;50.830;12.082;2023-04-28T21:49:02;98920.25;;;22.64;36.69
16100;BME280;8154;50.830;12.082;2023-04-28T21:51:29;98929.50;;;22.61;36.59
16100;BME280;8154;50.830;12.082;2023-04-28T21:53:56;98930.50;;;22.60;36.49
16100;BME280;8154;50.830;12.082;2023-04-28T21:56:22;98934.63;;;22.63;36.57
16100;BME280;8154;50.830;12.082;2023-04-28T21:58:49;98932.97;;;22.62;36.70
16100;BME280;8154;50.830;12.082;2023-04-28T22:01:15;98929.50;;;22.61;36.61
16100;BME280;8154;50.830;12.082;2023-04-28T22:03:44;98927.63;;;22.62;36.66
16100;BME280;8154;50.830;12.082;2023-04-28T22:06:11;98922.50;;;22.60;36.72
16100;BME280;8154;50.830;12.082;2023-04-28T22:08:38;98919.03;;;22.60;36.64
16100;BME280;8154;50.830;12.082;2023-04-28T22:11:04;98913.31;;;22.63;36.48
16100;BME280;8154;50.830;12.082;2023-04-28T22:13:31;98919.03;;;22.60;36.56
16100;BME280;8154;50.830;12.082;2023-04-28T22:15:57;98916.38;;;22.60;36.66
16100;BME280;8154;50.830;12.082;2023-04-28T22:18:25;98914.72;;;22.59;36.82
